createdAt,value
2022-10-16T00:00:48.302Z,99596.59
2022-10-16T00:03:14.880Z,99609.25
2022-10-16T00:05:43.303Z,99613.88
2022-10-16T00:08:14.144Z,99606.34
2022-10-16T00:10:41.056Z,99596.66
2022-10-16T00:13:07.537Z,99587.78
2022-10-16T00:15:37.272Z,99597.63
2022-10-16T00:18:04.885Z,99607.75
2022-10-16T00:20:34.394Z,99614.22
2022-10-16T00:23:00.788Z,99619.88
2022-10-16T00:25:27.267Z,99615.25
2022-10-16T00:27:53.723Z,99615.53
2022-10-16T00:30:20.252Z,99613.16
2022-10-16T00:32:46.753Z,99603.91
2022-10-16T00:35:13.202Z,99611.38
2022-10-16T00:37:39.593Z,99617.84
2022-10-16T00:40:06.608Z,99618.97
2022-10-16T00:42:33.006Z,99615.44
2022-10-16T00:44:59.456Z,99609.56
2022-10-16T00:47:33.813Z,99612.22
2022-10-16T00:50:19.756Z,99614.06
2022-10-16T00:52:49.053Z,99606.06
2022-10-16T00:55:15.380Z,99614.31
2022-10-16T00:57:42.816Z,99606.63
2022-10-16T01:00:16.543Z,99613.63
2022-10-16T01:02:42.967Z,99609.84
2022-10-16T01:05:10.282Z,99613.03
2022-10-16T01:07:54.688Z,99623.44
2022-10-16T01:10:39.217Z,99619.78
2022-10-16T01:13:08.787Z,99617.94
2022-10-16T01:18:25.339Z,99632.66
2022-10-16T01:21:02.377Z,99642.19
2022-10-16T01:23:35.716Z,99635.19
2022-10-16T01:26:24.144Z,99622.56
2022-10-16T01:29:09.110Z,99624.91
2022-10-16T01:31:38.235Z,99621.00
2022-10-16T01:34:09.322Z,99623.50
2022-10-16T01:36:39.371Z,99616.06
2022-10-16T01:39:07.852Z,99620.81
2022-10-16T01:41:38.306Z,99607.47
2022-10-16T01:44:08.058Z,99613.47
2022-10-16T01:46:37.095Z,99615.31
2022-10-16T01:49:04.373Z,99621.50
2022-10-16T01:51:31.117Z,99633.84
2022-10-16T01:53:59.492Z,99639.34
2022-10-16T01:56:26.286Z,99648.03
2022-10-16T01:59:13.684Z,99648.88
2022-10-16T02:01:45.787Z,99644.22
2022-10-16T02:04:20.282Z,99641.13
2022-10-16T02:06:46.881Z,99633.81
2022-10-16T02:09:13.384Z,99641.53
2022-10-16T02:11:39.792Z,99630.84
2022-10-16T02:14:07.821Z,99638.53
2022-10-16T02:16:42.600Z,99641.69
2022-10-16T02:19:14.105Z,99631.00
2022-10-16T02:21:58.480Z,99624.09
2022-10-16T02:24:37.805Z,99616.09
2022-10-16T02:27:28.109Z,99616.22
2022-10-16T02:29:59.892Z,99620.00
2022-10-16T02:32:31.453Z,99630.84
2022-10-16T02:34:59.596Z,99631.97
2022-10-16T02:37:26.513Z,99630.16
2022-10-16T02:39:53.291Z,99634.66
2022-10-16T02:42:19.707Z,99639.00
2022-10-16T02:44:46.121Z,99631.16
2022-10-16T02:47:13.474Z,99632.81
2022-10-16T02:49:39.874Z,99634.66
2022-10-16T02:52:06.264Z,99641.69
2022-10-16T02:54:32.677Z,99635.19
2022-10-16T02:56:59.048Z,99642.06
2022-10-16T02:59:25.459Z,99640.13
2022-10-16T03:01:51.871Z,99635.63
2022-10-16T03:04:18.345Z,99640.00
2022-10-16T03:06:44.729Z,99647.00
2022-10-16T03:09:12.196Z,99660.06
2022-10-16T03:11:38.605Z,99654.41
2022-10-16T03:14:05.007Z,99643.72
2022-10-16T03:16:31.435Z,99647.41
2022-10-16T03:18:57.864Z,99643.06
2022-10-16T03:21:24.254Z,99652.03
2022-10-16T03:23:50.665Z,99637.00
2022-10-16T03:26:17.122Z,99638.00
2022-10-16T03:28:43.555Z,99643.50
2022-10-16T03:31:09.999Z,99648.13
2022-10-16T03:33:36.414Z,99652.63
2022-10-16T03:36:02.973Z,99654.44
2022-10-16T03:38:29.430Z,99652.91
2022-10-16T03:40:55.846Z,99651.06
2022-10-16T03:43:22.939Z,99654.31
2022-10-16T03:45:51.929Z,99659.50
2022-10-16T03:48:21.945Z,99665.13
2022-10-16T03:50:49.247Z,99677.75
2022-10-16T03:53:16.208Z,99671.44
2022-10-16T03:55:43.524Z,99668.75
2022-10-16T03:58:09.997Z,99667.22
2022-10-16T04:00:36.400Z,99667.78
2022-10-16T04:03:02.804Z,99665.69
2022-10-16T04:05:29.201Z,99682.53
2022-10-16T04:07:55.952Z,99676.06
2022-10-16T04:10:22.440Z,99676.78
2022-10-16T04:12:48.850Z,99657.94
2022-10-16T04:15:15.345Z,99679.97
2022-10-16T04:17:41.738Z,99663.81
2022-10-16T04:20:08.622Z,99665.34
2022-10-16T04:22:35.008Z,99652.84
2022-10-16T04:25:01.425Z,99669.00
2022-10-16T04:27:28.306Z,99684.06
2022-10-16T04:29:55.049Z,99684.88
2022-10-16T04:32:21.446Z,99686.72
2022-10-16T04:34:47.843Z,99673.81
2022-10-16T04:37:14.246Z,99678.31
2022-10-16T04:39:40.684Z,99684.78
2022-10-16T04:42:07.423Z,99691.09
2022-10-16T04:44:35.011Z,99691.25
2022-10-16T04:47:01.618Z,99684.22
2022-10-16T04:49:28.073Z,99683.38
2022-10-16T04:51:56.580Z,99691.38
2022-10-16T04:54:23.075Z,99683.38
2022-10-16T04:56:51.338Z,99678.91
2022-10-16T04:59:19.188Z,99671.88
2022-10-16T05:01:46.240Z,99673.00
2022-10-16T05:04:13.317Z,99682.81
2022-10-16T05:06:39.961Z,99685.50
2022-10-16T05:09:06.716Z,99682.13
2022-10-16T05:11:33.105Z,99671.88
2022-10-16T05:13:59.942Z,99676.66
2022-10-16T05:16:26.593Z,99682.84
2022-10-16T05:18:56.187Z,99681.00
2022-10-16T05:21:30.805Z,99671.19
2022-10-16T05:23:57.337Z,99669.50
2022-10-16T05:26:24.018Z,99673.72
2022-10-16T05:28:50.925Z,99681.25
2022-10-16T05:31:17.378Z,99674.25
2022-10-16T05:33:45.079Z,99684.50
2022-10-16T05:36:11.716Z,99681.84
2022-10-16T05:38:38.526Z,99685.22
2022-10-16T05:41:05.789Z,99682.53
2022-10-16T05:43:33.137Z,99695.91
2022-10-16T05:46:02.121Z,99699.69
2022-10-16T05:48:28.631Z,99704.06
2022-10-16T05:51:04.518Z,99707.56
2022-10-16T05:53:32.860Z,99711.09
2022-10-16T05:55:59.636Z,99706.00
2022-10-16T05:58:29.467Z,99711.34
2022-10-16T06:00:57.317Z,99718.50
2022-10-16T06:03:23.958Z,99719.47
2022-10-16T06:05:50.804Z,99732.44
2022-10-16T06:08:17.425Z,99734.25
2022-10-16T06:10:44.605Z,99732.28
2022-10-16T06:13:11.813Z,99741.84
2022-10-16T06:15:39.921Z,99739.16
2022-10-16T06:18:06.512Z,99741.38
2022-10-16T06:20:33.240Z,99750.09
2022-10-16T06:22:59.636Z,99761.59
2022-10-16T06:25:26.024Z,99755.44
2022-10-16T06:27:52.407Z,99753.75
2022-10-16T06:30:18.795Z,99746.44
2022-10-16T06:32:45.253Z,99747.28
2022-10-16T06:35:11.686Z,99749.25
2022-10-16T06:37:38.076Z,99751.94
2022-10-16T06:40:05.228Z,99744.03
2022-10-16T06:42:31.620Z,99742.38
2022-10-16T06:44:58.113Z,99736.59
2022-10-16T06:47:24.591Z,99743.63
2022-10-16T06:49:53.575Z,99731.66
2022-10-16T06:52:20.955Z,99748.38
2022-10-16T06:54:47.376Z,99757.06
2022-10-16T06:57:13.759Z,99764.66
2022-10-16T06:59:40.992Z,99766.75
2022-10-16T07:02:09.400Z,99765.44
2022-10-16T07:04:36.853Z,99772.06
2022-10-16T07:07:05.668Z,99770.91
2022-10-16T07:09:34.933Z,99770.59
2022-10-16T07:12:01.312Z,99774.81
2022-10-16T07:14:27.818Z,99780.00
2022-10-16T07:16:54.364Z,99773.69
2022-10-16T07:19:20.738Z,99788.41
2022-10-16T07:21:47.134Z,99796.16
2022-10-16T07:24:15.594Z,99781.78
2022-10-16T07:26:45.243Z,99789.53
2022-10-16T07:29:17.029Z,99795.03
2022-10-16T07:31:43.763Z,99793.72
2022-10-16T07:34:11.744Z,99798.91
2022-10-16T07:36:38.223Z,99796.09
2022-10-16T07:39:05.082Z,99805.63
2022-10-16T07:41:33.596Z,99812.53
2022-10-16T07:44:03.085Z,99821.25
2022-10-16T07:46:29.517Z,99827.13
2022-10-16T07:48:55.944Z,99820.09
2022-10-16T07:51:23.637Z,99835.16
2022-10-16T07:53:50.076Z,99837.38
2022-10-16T07:56:17.861Z,99835.41
2022-10-16T07:58:44.394Z,99835.25
2022-10-16T08:01:14.135Z,99833.44
2022-10-16T08:03:46.156Z,99840.31
2022-10-16T08:06:12.638Z,99845.78
2022-10-16T08:08:39.046Z,99855.50
2022-10-16T08:11:05.659Z,99848.88
2022-10-16T08:13:32.536Z,99855.88
2022-10-16T08:15:58.983Z,99855.06
2022-10-16T08:18:25.400Z,99848.19
2022-10-16T08:20:59.790Z,99858.88
2022-10-16T08:23:27.418Z,99865.91
2022-10-16T08:25:57.630Z,99872.38
2022-10-16T08:28:24.505Z,99877.47
2022-10-16T08:30:50.951Z,99884.09
2022-10-16T08:33:17.550Z,99896.91
2022-10-16T08:35:43.914Z,99901.03
2022-10-16T08:38:11.379Z,99911.16
2022-10-16T08:40:38.122Z,99918.19
2022-10-16T08:43:22.796Z,99938.34
2022-10-16T08:46:08.124Z,99945.66
2022-10-16T08:48:47.446Z,99956.47
2022-10-16T08:51:21.076Z,99962.66
2022-10-16T08:53:55.141Z,99955.50
2022-10-16T08:56:21.841Z,99940.16
2022-10-16T08:58:48.928Z,99944.09
2022-10-16T09:01:18.150Z,99941.88
2022-10-16T09:04:06.427Z,99944.97
2022-10-16T09:06:41.639Z,99945.28
2022-10-16T09:09:39.443Z,99944.13
2022-10-16T09:12:40.088Z,99937.66
2022-10-16T09:15:28.096Z,99946.41
2022-10-16T09:18:03.503Z,99956.50
2022-10-16T09:20:32.669Z,99971.13
2022-10-16T09:23:04.768Z,99978.41
2022-10-16T09:25:31.461Z,99962.97
2022-10-16T09:27:57.868Z,99957.72
2022-10-16T09:30:27.959Z,99963.78
2022-10-16T09:32:54.542Z,99955.44
2022-10-16T09:35:25.762Z,99964.59
2022-10-16T09:37:54.216Z,99961.63
2022-10-16T09:40:35.548Z,99966.94
2022-10-16T09:43:04.470Z,99963.97
2022-10-16T09:45:30.896Z,99967.34
2022-10-16T09:47:57.968Z,99971.16
2022-10-16T09:50:29.456Z,99969.03
2022-10-16T09:53:15.540Z,99966.22
2022-10-16T09:55:51.985Z,99975.78
2022-10-16T09:58:18.655Z,99974.78
2022-10-16T10:00:55.143Z,99976.06
2022-10-16T10:03:35.197Z,99985.19
2022-10-16T10:06:17.453Z,99983.59
2022-10-16T10:09:06.974Z,99980.47
2022-10-16T10:11:39.977Z,99979.66
2022-10-16T10:14:09.564Z,99984.53
2022-10-16T10:16:36.134Z,99979.59
2022-10-16T10:19:02.516Z,99992.22
2022-10-16T10:21:28.886Z,99996.41
2022-10-16T10:23:58.160Z,99990.53
2022-10-16T10:26:28.086Z,99995.50
2022-10-16T10:29:24.988Z,99991.72
2022-10-16T10:32:00.449Z,99984.69
2022-10-16T10:34:54.200Z,99994.25
2022-10-16T10:37:28.953Z,99995.22
2022-10-16T10:40:12.761Z,99997.91
2022-10-16T10:42:50.156Z,99993.84
2022-10-16T10:45:27.519Z,99998.19
2022-10-16T10:48:04.373Z,99993.53
2022-10-16T10:50:42.435Z,99987.19
2022-10-16T10:53:16.348Z,99990.25
2022-10-16T10:56:01.164Z,99998.47
2022-10-16T10:58:40.101Z,99991.84
2022-10-16T11:01:13.307Z,99985.34
2022-10-16T11:04:05.384Z,99990.44
2022-10-16T11:06:36.012Z,99991.63
2022-10-16T11:09:14.185Z,99985.53
2022-10-16T11:12:15.415Z,99978.03
2022-10-16T11:14:46.033Z,99975.59
2022-10-16T11:17:52.868Z,99978.66
2022-10-16T11:20:22.847Z,99973.84
2022-10-16T11:22:57.197Z,99974.38
2022-10-16T11:25:34.007Z,99983.63
2022-10-16T11:28:14.456Z,99986.31
2022-10-16T11:30:51.319Z,99986.31
2022-10-16T11:33:34.126Z,99986.69
2022-10-16T11:36:05.296Z,99992.28
2022-10-16T11:38:56.112Z,99991.50
2022-10-16T11:41:53.873Z,99988.72
2022-10-16T11:44:56.060Z,99992.31
2022-10-16T11:50:27.654Z,99985.00
2022-10-16T11:53:17.345Z,99983.91
2022-10-16T11:55:46.962Z,99980.59
2022-10-16T11:58:24.566Z,99972.75
2022-10-16T12:00:59.736Z,99982.72
2022-10-16T12:03:32.262Z,99978.41
2022-10-16T12:06:21.189Z,99970.72
2022-10-16T12:08:47.824Z,99968.03
2022-10-16T12:11:25.722Z,99965.25
2022-10-16T12:13:53.282Z,99967.13
2022-10-16T12:16:24.178Z,99967.13
2022-10-16T12:19:16.257Z,99980.91
2022-10-16T12:21:43.993Z,99972.53
2022-10-16T12:24:21.945Z,99972.88
2022-10-16T12:26:49.966Z,99973.22
2022-10-16T12:29:35.555Z,99973.06
2022-10-16T12:32:03.758Z,99982.13
2022-10-16T12:34:45.803Z,99986.97
2022-10-16T12:37:15.156Z,99976.09
2022-10-16T12:39:41.816Z,99978.78
2022-10-16T12:42:27.993Z,99978.44
2022-10-16T12:44:55.657Z,99976.25
2022-10-16T12:47:38.904Z,99981.81
2022-10-16T12:50:24.532Z,99978.94
2022-10-16T12:52:50.959Z,99983.81
2022-10-16T12:55:19.996Z,99983.16
2022-10-16T12:58:04.658Z,99974.28
2022-10-16T13:00:47.000Z,99982.03
2022-10-16T13:03:47.073Z,99979.34
2022-10-16T13:06:25.613Z,99985.91
2022-10-16T13:09:09.799Z,99985.56
2022-10-16T13:11:59.919Z,99991.28
2022-10-16T13:14:50.244Z,99984.22
2022-10-16T13:17:37.943Z,99993.78
2022-10-16T13:20:32.105Z,99983.38
2022-10-16T13:23:16.030Z,99989.75
2022-10-16T13:25:51.550Z,99981.03
2022-10-16T13:28:23.845Z,99993.28
2022-10-16T13:30:55.155Z,99988.69
2022-10-16T13:33:32.093Z,99991.84
2022-10-16T13:35:58.739Z,99986.44
2022-10-16T13:38:28.002Z,99989.81
2022-10-16T13:41:21.540Z,99997.28
2022-10-16T13:43:51.022Z,100006.38
2022-10-16T13:46:22.558Z,100005.34
2022-10-16T13:48:59.526Z,99999.09
2022-10-16T13:51:26.027Z,100000.72
2022-10-16T13:53:52.688Z,100010.25
2022-10-16T13:56:21.532Z,100016.44
2022-10-16T13:59:01.892Z,100005.34
2022-10-16T14:01:42.594Z,100006.94
2022-10-16T14:04:10.670Z,100008.09
2022-10-16T14:06:37.967Z,100007.56
2022-10-16T14:09:09.670Z,100015.94
2022-10-16T14:11:49.418Z,100016.25
2022-10-16T14:14:16.416Z,100015.56
2022-10-16T14:16:44.155Z,100011.88
2022-10-16T14:19:19.139Z,99996.78
2022-10-16T14:21:45.607Z,99995.97
2022-10-16T14:24:13.430Z,99991.25
2022-10-16T14:26:49.736Z,99985.91
2022-10-16T14:29:20.984Z,99992.41
2022-10-16T14:32:00.802Z,99985.38
2022-10-16T14:34:38.075Z,99979.00
2022-10-16T14:37:25.209Z,99980.00
2022-10-16T14:39:55.292Z,99972.97
2022-10-16T14:42:25.149Z,99975.97
2022-10-16T14:44:55.029Z,99966.56
2022-10-16T14:47:26.377Z,99976.28
2022-10-16T14:49:55.888Z,99976.41
2022-10-16T14:52:22.327Z,99978.09
2022-10-16T14:54:50.159Z,99975.75
2022-10-16T14:57:22.926Z,99975.06
2022-10-16T14:59:49.763Z,99975.06
2022-10-16T15:02:21.792Z,99985.78
2022-10-16T15:04:48.434Z,99973.38
2022-10-16T15:07:15.096Z,99983.28
2022-10-16T15:09:46.488Z,99983.28
2022-10-16T15:12:15.649Z,99978.06
2022-10-16T15:14:42.092Z,99991.78
2022-10-16T15:17:11.155Z,99986.56
2022-10-16T15:19:37.564Z,99992.09
2022-10-16T15:22:03.952Z,99996.63
2022-10-16T15:24:30.407Z,100005.66
2022-10-16T15:26:56.828Z,100000.47
2022-10-16T15:29:23.213Z,100002.28
2022-10-16T15:31:49.662Z,100014.38
2022-10-16T15:34:16.349Z,100015.22
2022-10-16T15:36:42.824Z,100009.72
2022-10-16T15:39:14.648Z,100014.38
2022-10-16T15:41:42.234Z,100020.75
2022-10-16T15:44:08.893Z,100023.44
2022-10-16T15:46:35.417Z,100012.72
2022-10-16T15:49:02.031Z,100011.31
2022-10-16T15:51:30.367Z,100018.84
2022-10-16T15:53:57.857Z,100006.44
2022-10-16T15:56:26.228Z,100009.41
2022-10-16T15:58:54.339Z,100018.94
2022-10-16T16:01:21.556Z,100022.59
2022-10-16T16:03:48.764Z,100013.34
2022-10-16T16:06:15.230Z,100018.00
2022-10-16T16:08:41.998Z,100018.63
2022-10-16T16:11:10.915Z,100020.09
2022-10-16T16:13:39.014Z,100016.03
2022-10-16T16:16:13.570Z,100022.13
2022-10-16T16:18:40.430Z,100020.59
2022-10-16T16:21:07.261Z,100022.03
2022-10-16T16:23:33.792Z,100023.63
2022-10-16T16:26:14.669Z,100024.91
2022-10-16T16:28:42.543Z,100022.84
2022-10-16T16:31:09.536Z,100030.47
2022-10-16T16:33:35.981Z,100030.78
2022-10-16T16:36:04.911Z,100029.09
2022-10-16T16:38:33.448Z,100031.06
2022-10-16T16:41:00.271Z,100026.34
2022-10-16T16:43:27.765Z,100032.84
2022-10-16T16:45:55.223Z,100032.97
2022-10-16T16:48:22.159Z,100036.66
2022-10-16T16:50:48.667Z,100029.78
2022-10-16T16:53:15.070Z,100033.59
2022-10-16T16:55:41.557Z,100043.44
2022-10-16T16:58:09.682Z,100043.59
2022-10-16T17:00:51.497Z,100045.28
2022-10-16T17:03:25.809Z,100047.09
2022-10-16T17:06:13.016Z,100046.53
2022-10-16T17:08:40.388Z,100038.66
2022-10-16T17:11:07.443Z,100043.47
2022-10-16T17:13:38.273Z,100045.47
2022-10-16T17:16:08.134Z,100045.75
2022-10-16T17:18:37.337Z,100047.72
2022-10-16T17:21:05.311Z,100050.25
2022-10-16T17:23:32.320Z,100044.75
2022-10-16T17:26:04.766Z,100051.94
2022-10-16T17:28:34.633Z,100048.88
2022-10-16T17:31:18.900Z,100052.97
2022-10-16T17:33:46.025Z,100048.91
2022-10-16T17:36:14.560Z,100057.66
2022-10-16T17:38:42.443Z,100056.41
2022-10-16T17:41:15.728Z,100055.16
2022-10-16T17:43:42.388Z,100057.25
2022-10-16T17:46:11.114Z,100068.22
2022-10-16T17:48:42.364Z,100066.97
2022-10-16T17:51:10.703Z,100067.66
2022-10-16T17:53:38.048Z,100065.72
2022-10-16T17:56:09.492Z,100070.53
2022-10-16T17:58:36.320Z,100069.97
2022-10-16T18:01:12.710Z,100071.66
2022-10-16T18:03:39.149Z,100078.94
2022-10-16T18:06:05.630Z,100078.28
2022-10-16T18:08:32.088Z,100080.78
2022-10-16T18:10:58.700Z,100084.56
2022-10-16T18:13:25.285Z,100084.72
2022-10-16T18:16:03.459Z,100082.47
2022-10-16T18:18:30.129Z,100093.28
2022-10-16T18:20:58.119Z,100091.59
2022-10-16T18:23:24.827Z,100091.88
2022-10-16T18:25:52.095Z,100089.38
2022-10-16T18:28:19.062Z,100094.72
2022-10-16T18:30:45.601Z,100092.44
2022-10-16T18:33:12.010Z,100093.72
2022-10-16T18:35:38.699Z,100096.38
2022-10-16T18:38:05.112Z,100097.34
2022-10-16T18:40:31.512Z,100099.19
2022-10-16T18:42:57.981Z,100096.63
2022-10-16T18:45:24.428Z,100101.88
2022-10-16T18:47:50.940Z,100096.53
2022-10-16T18:50:17.419Z,100096.53
2022-10-16T18:52:48.613Z,100101.00
2022-10-16T18:55:15.188Z,100091.28
2022-10-16T18:57:41.727Z,100087.22
2022-10-16T19:00:08.834Z,100092.00
2022-10-16T19:05:11.928Z,100090.31
2022-10-16T19:07:43.165Z,100088.63
2022-10-16T19:10:09.555Z,100088.63
2022-10-16T19:12:35.954Z,100094.81
2022-10-16T19:15:02.367Z,100096.66
2022-10-16T19:17:28.768Z,100092.56
2022-10-16T19:19:56.190Z,100097.91
2022-10-16T19:22:31.160Z,100094.22
2022-10-16T19:24:57.729Z,100097.91
2022-10-16T19:27:24.143Z,100098.72
2022-10-16T19:29:50.599Z,100095.50
2022-10-16T19:32:16.989Z,100107.16
2022-10-16T19:34:48.213Z,100100.97
2022-10-16T19:37:14.849Z,100103.06
2022-10-16T19:39:41.366Z,100105.34
2022-10-16T19:42:07.773Z,100107.03
2022-10-16T19:44:34.213Z,100112.63
2022-10-16T19:47:00.770Z,100110.09
2022-10-16T19:49:27.205Z,100115.44
2022-10-16T19:51:54.434Z,100118.13
2022-10-16T19:54:21.196Z,100120.94
2022-10-16T19:56:47.641Z,100125.41
2022-10-16T19:59:16.213Z,100125.53
2022-10-16T20:01:42.699Z,100129.75
2022-10-16T20:04:09.127Z,100121.75
2022-10-16T20:06:35.700Z,100132.28
2022-10-16T20:09:02.121Z,100140.44
2022-10-16T20:11:31.332Z,100143.84
2022-10-16T20:13:58.643Z,100147.47
2022-10-16T20:16:26.409Z,100151.84
2022-10-16T20:18:53.820Z,100152.00
2022-10-16T20:21:34.977Z,100150.28
2022-10-16T20:24:04.925Z,100153.09
2022-10-16T20:26:31.366Z,100159.56
2022-10-16T20:28:57.833Z,100163.31
2022-10-16T20:31:27.303Z,100151.47
2022-10-16T20:33:55.270Z,100163.94
2022-10-16T20:36:22.951Z,100159.88
2022-10-16T20:38:50.143Z,100161.56
2022-10-16T20:41:17.108Z,100165.94
2022-10-16T20:43:45.484Z,100173.94
2022-10-16T20:46:13.852Z,100173.06
2022-10-16T20:48:44.090Z,100184.63
2022-10-16T20:51:18.008Z,100175.06
2022-10-16T20:53:46.428Z,100182.19
2022-10-16T20:56:15.750Z,100183.19
2022-10-16T20:58:42.227Z,100177.84
2022-10-16T21:01:10.795Z,100179.66
2022-10-16T21:03:37.771Z,100185.16
2022-10-16T21:06:06.473Z,100189.66
2022-10-16T21:08:37.780Z,100191.44
2022-10-16T21:11:18.014Z,100193.69
2022-10-16T21:13:45.179Z,100189.44
2022-10-16T21:16:12.413Z,100193.09
2022-10-16T21:18:44.039Z,100195.91
2022-10-16T21:21:14.041Z,100197.72
2022-10-16T21:23:40.437Z,100199.69
2022-10-16T21:26:07.027Z,100206.84
2022-10-16T21:28:33.472Z,100204.19
2022-10-16T21:31:00.973Z,100205.41
2022-10-16T21:33:28.790Z,100209.91
2022-10-16T21:35:55.290Z,100210.03
2022-10-16T21:38:22.773Z,100194.16
2022-10-16T21:40:49.164Z,100203.28
2022-10-16T21:43:15.581Z,100193.56
2022-10-16T21:45:41.994Z,100196.38
2022-10-16T21:48:08.407Z,100193.97
2022-10-16T21:50:34.836Z,100189.72
2022-10-16T21:53:01.254Z,100194.22
2022-10-16T21:55:27.649Z,100185.63
2022-10-16T21:57:54.066Z,100187.56
2022-10-16T22:00:20.530Z,100187.72
2022-10-16T22:02:46.905Z,100181.69
2022-10-16T22:05:13.383Z,100185.44
2022-10-16T22:07:39.796Z,100185.56
2022-10-16T22:10:06.668Z,100187.41
2022-10-16T22:12:33.086Z,100190.19
2022-10-16T22:14:59.486Z,100191.16
2022-10-16T22:17:26.126Z,100179.78
2022-10-16T22:19:52.655Z,100169.53
2022-10-16T22:22:19.043Z,100176.50
2022-10-16T22:24:45.497Z,100179.78
2022-10-16T22:27:11.957Z,100178.66
2022-10-16T22:29:38.468Z,100184.22
2022-10-16T22:32:04.897Z,100180.31
2022-10-16T22:34:31.316Z,100188.03
2022-10-16T22:36:57.723Z,100188.75
2022-10-16T22:39:24.157Z,100193.13
2022-10-16T22:41:50.552Z,100184.97
2022-10-16T22:44:16.931Z,100188.94
2022-10-16T22:46:43.384Z,100184.19
2022-10-16T22:49:09.817Z,100190.09
2022-10-16T22:51:36.249Z,100188.75
2022-10-16T22:54:02.667Z,100184.97
2022-10-16T22:56:29.144Z,100190.88
2022-10-16T22:58:55.577Z,100185.16
2022-10-16T23:01:25.265Z,100181.81
2022-10-16T23:03:51.712Z,100179.91
2022-10-16T23:06:18.119Z,100182.09
2022-10-16T23:08:44.503Z,100187.59
2022-10-16T23:11:12.607Z,100190.13
2022-10-16T23:13:43.380Z,100197.16
2022-10-16T23:16:09.808Z,100201.81
2022-10-16T23:18:36.208Z,100208.25
2022-10-16T23:21:16.901Z,100196.84
2022-10-16T23:23:43.819Z,100204.88
2022-10-16T23:26:15.927Z,100202.34
2022-10-16T23:28:42.807Z,100208.06
2022-10-16T23:31:10.020Z,100207.78
2022-10-16T23:33:37.462Z,100210.06
2022-10-16T23:36:09.653Z,100224.97
2022-10-16T23:38:36.375Z,100215.94
2022-10-16T23:41:02.933Z,100231.41
2022-10-16T23:43:29.632Z,100244.19
2022-10-16T23:45:56.363Z,100247.25
2022-10-16T23:48:23.097Z,100245.97
2022-10-16T23:50:49.540Z,100258.38
2022-10-16T23:53:16.393Z,100253.81
2022-10-16T23:55:42.842Z,100248.88
2022-10-16T23:58:09.261Z,100265.13
